< < Back
Terminal Aerodrome Forecast


Current Version              Previous Versions:   1  2  3  4  5  6  7  8  9  

Terminal Aerodrome Forecast

961
FTUS42 KTAE 062000 AAB
TAFVLD
TAF AMD
KVLD 062013Z 0620/0718 01009KT 4SM BR OVC012
     FM070500 03006KT P6SM SCT250=

Latest METAR

499
SAUS70 KWBC 062100 RRD
MTRVLD
METAR KVLD 062053Z 02009KT 3SM BR BKN006 OVC013 09/08 A3035 RMK AO2
RAB07E16B38E48 SLP285 P0000 60000 T00890078 55002


USA.gov is the U.S. government's official web portal to all federal, state and local government web resources and services.